Time;durP1;ratioP1;P1;durP2;ratioP2;P2;SDS_P1;SDS_P2;PMS_P1;PMS_P2;Temp;Humidity;BMP_temperature;BMP_pressure;BME280_temperature;BME280_humidity;BME280_pressure;Samples;Min_cycle;Max_cycle;Signal;HPM_P1;HPM_P2
2021/01/22 00:00:05;;;;;;;69.03;30.00;;;;;;;-2.50;91.65;100013.13;1779696;80;21230;-72
2021/01/22 00:02:34;;;;;;;75.90;30.62;;;;;;;-2.48;91.66;100018.33;1778188;80;21372;-72
2021/01/22 00:05:06;;;;;;;69.80;30.80;;;;;;;-2.52;91.80;100012.24;1776204;80;21210;-73
2021/01/22 00:07:35;;;;;;;76.45;33.38;;;;;;;-2.50;91.71;100007.98;1776603;80;25782;-72
2021/01/22 00:10:07;;;;;;;;;;;;;;;-2.50;91.69;100007.98;1779182;80;21583;-72
2021/01/22 00:12:37;;;;;;;81.37;30.82;;;;;;;-2.49;91.73;100003.25;1776539;80;20282;-73
2021/01/22 00:15:06;;;;;;;85.57;35.15;;;;;;;-2.55;91.79;100001.90;1776417;80;21376;-73
2021/01/22 00:17:34;;;;;;;77.58;30.88;;;;;;;-2.57;91.83;99996.71;1776221;80;21263;-73
2021/01/22 00:20:05;;;;;;;73.83;29.97;;;;;;;-2.57;91.88;99998.42;1778219;80;21728;-72
2021/01/22 00:22:34;;;;;;;74.50;32.03;;;;;;;-2.59;91.98;100000.11;1782927;80;21185;-73
2021/01/22 00:25:06;;;;;;;82.75;35.95;;;;;;;-2.62;92.02;100001.38;1782956;80;21724;-73
2021/01/22 00:27:34;;;;;;;77.63;33.93;;;;;;;-2.63;92.10;99994.03;1782612;80;21630;-74
2021/01/22 00:30:05;;;;;;;76.77;34.00;;;;;;;-2.64;92.19;99992.31;1782774;80;21201;-72
2021/01/22 00:32:33;;;;;;;66.42;27.87;;;;;;;-2.65;92.22;99985.41;1782655;80;21644;-72
2021/01/22 00:35:01;;;;;;;76.42;33.38;;;;;;;-2.64;92.24;99982.00;1782629;80;21654;-72
2021/01/22 00:37:29;;;;;;;77.10;34.93;;;;;;;-2.63;92.27;99981.58;1782595;80;21131;-73
2021/01/22 00:39:57;;;;;;;73.02;30.68;;;;;;;-2.64;92.32;99975.98;1782640;80;22040;-71
2021/01/22 00:42:25;;;;;;;76.70;33.45;;;;;;;-2.63;92.27;99977.28;1782378;80;21809;-72
2021/01/22 00:44:53;;;;;;;70.17;30.50;;;;;;;-2.65;92.35;99969.08;1782398;80;21438;-72
2021/01/22 00:47:20;;;;;;;69.23;30.63;;;;;;;-2.65;92.42;99966.50;1798202;79;21187;-73
2021/01/22 00:49:48;;;;;;;69.37;27.77;;;;;;;-2.66;92.46;99966.94;1804101;79;21179;-72
2021/01/22 00:52:17;;;;;;;83.72;34.50;;;;;;;-2.65;92.45;99968.65;1804035;79;21449;-73
2021/01/22 00:54:45;;;;;;;81.28;35.23;;;;;;;-2.63;92.50;99968.25;1793826;79;21252;-72
2021/01/22 00:57:32;;;;;;;72.45;29.00;;;;;;;-2.62;92.53;99953.67;1772362;80;21200;-72
2021/01/22 01:00:00;;;;;;;72.42;30.72;;;;;;;-2.64;92.53;99963.09;1746332;80;21177;-72
2021/01/22 01:02:30;;;;;;;77.10;31.57;;;;;;;-2.66;92.63;99946.73;1772619;80;21219;-72
2021/01/22 01:04:59;;;;;;;70.30;27.45;;;;;;;-2.65;92.66;99948.45;1776948;80;21369;-71
2021/01/22 01:07:26;;;;;;;74.03;30.93;;;;;;;-2.68;92.70;99949.28;1778531;80;21202;-72
2021/01/22 01:09:55;;;;;;;72.70;27.33;;;;;;;-2.71;92.91;99950.94;1778743;80;22227;-71
2021/01/22 01:12:41;;;;;;;63.23;25.83;;;;;;;-2.76;93.14;99947.01;1778656;80;21174;-72
2021/01/22 01:15:14;;;;;;;82.27;34.77;;;;;;;-2.77;93.33;99944.00;1774620;80;21218;-73
2021/01/22 01:17:41;;;;;;;59.98;24.82;;;;;;;-2.77;93.37;99946.15;1778507;80;21437;-72
2021/01/22 01:20:11;;;;;;;82.03;35.03;;;;;;;-2.78;93.59;99937.98;1778520;80;21678;-72
2021/01/22 01:22:39;;;;;;;84.25;33.38;;;;;;;-2.78;93.65;99943.14;1778233;80;21186;-72
2021/01/22 01:25:09;;;;;;;80.45;33.20;;;;;;;-2.78;93.72;99949.59;1773661;80;21184;-73
2021/01/22 01:27:37;;;;;;;74.32;28.80;;;;;;;-2.78;93.86;99935.41;1772517;80;21156;-72
2021/01/22 01:30:07;;;;;;;71.72;28.75;;;;;;;-2.78;93.91;99946.16;1772260;80;21804;-72
2021/01/22 01:32:35;;;;;;;77.78;31.20;;;;;;;-2.76;93.90;99928.57;1772433;80;25795;-73
2021/01/22 01:35:06;;;;;;;94.80;34.85;;;;;;;-2.76;93.90;99928.57;1772445;80;21266;-72
2021/01/22 01:37:34;;;;;;;84.97;34.25;;;;;;;-2.72;93.98;99929.89;1772279;80;21236;-73
2021/01/22 01:40:04;;;;;;;75.20;29.48;;;;;;;-2.73;94.03;99924.31;1772520;80;21589;-71
2021/01/22 01:42:32;;;;;;;74.85;31.40;;;;;;;-2.73;94.08;99923.02;1772574;80;21840;-71
2021/01/22 01:45:00;;;;;;;67.60;28.00;;;;;;;-2.70;94.05;99911.45;1772436;80;21153;-72
2021/01/22 01:47:29;;;;;;;83.33;33.65;;;;;;;-2.72;94.13;99915.71;1772566;80;21145;-72
2021/01/22 01:49:57;;;;;;;85.57;36.53;;;;;;;-2.70;94.12;99905.00;1772685;80;21555;-72
2021/01/22 01:52:25;;;;;;;85.50;35.47;;;;;;;-2.71;94.27;99905.83;1772697;80;21607;-71
2021/01/22 01:54:53;;;;;;;86.87;36.20;;;;;;;-2.70;94.24;99898.56;1772548;80;21372;-71
2021/01/22 01:57:21;;;;;;;84.70;34.50;;;;;;;-2.69;94.26;99898.59;1772342;80;21232;-74
2021/01/22 01:59:49;;;;;;;87.07;36.87;;;;;;;-2.69;94.25;99898.59;1777724;80;21626;-71
2021/01/22 02:02:18;;;;;;;89.23;35.93;;;;;;;-2.65;94.26;99909.78;1781395;80;22153;-71
2021/01/22 02:04:47;;;;;;;86.17;34.13;;;;;;;-2.64;94.26;99905.95;1747144;81;21147;-74
2021/01/22 02:07:14;;;;;;;90.97;37.17;;;;;;;-2.64;94.32;99906.38;1744670;81;21938;-71
2021/01/22 02:09:42;;;;;;;89.28;35.55;;;;;;;-2.66;94.38;99895.18;1759561;80;21606;-71
2021/01/22 02:12:10;;;;;;;85.65;34.78;;;;;;;-2.63;94.36;99895.20;1759836;80;21606;-73
2021/01/22 02:14:40;;;;;;;86.73;34.60;;;;;;;-2.65;94.49;99894.32;1743466;81;21575;-71
2021/01/22 02:17:08;;;;;;;88.92;36.93;;;;;;;-2.62;94.41;99891.80;1759860;81;21148;-71
2021/01/22 02:20:13;;;;;;;73.12;32.30;;;;;;;-2.65;94.54;99886.59;1759758;81;21198;-72
2021/01/22 02:22:41;;;;;;;86.28;32.65;;;;;;;-2.66;94.54;99882.29;1759714;81;21219;-72
2021/01/22 02:25:10;;;;;;;89.37;31.50;;;;;;;-2.67;94.69;99892.14;1777671;80;21186;-71
2021/01/22 02:27:39;;;;;;;73.55;28.73;;;;;;;-2.66;94.75;99893.89;1781797;80;21183;-73
2021/01/22 02:30:07;;;;;;;85.07;34.15;;;;;;;-2.68;94.89;99891.72;1781618;80;21182;-71
2021/01/22 02:32:37;;;;;;;86.15;34.98;;;;;;;-2.68;94.89;99884.84;1781332;80;21456;-72
2021/01/22 02:35:08;;;;;;;87.78;33.63;;;;;;;-2.68;94.97;99878.83;1781500;80;21646;-70
2021/01/22 02:37:37;;;;;;;93.17;34.67;;;;;;;-2.67;95.03;99865.08;1755508;80;21143;-70
2021/01/22 02:40:10;;;;;;;87.95;33.08;;;;;;;-2.71;95.19;99861.61;1781332;80;21159;-71
2021/01/22 02:42:40;;;;;;;59.87;23.57;;;;;;;-2.68;95.17;99871.09;1781530;80;21653;-70
2021/01/22 02:45:10;;;;;;;81.60;32.50;;;;;;;-2.67;95.22;99872.81;1755324;80;21359;-70
2021/01/22 02:47:45;;;;;;;91.53;36.43;;;;;;;-2.71;95.37;99871.03;1789097;79;21175;-72
2021/01/22 02:50:34;;;;;;;77.77;31.27;;;;;;;-2.70;95.48;99877.94;1790779;79;21214;-71
2021/01/22 02:53:05;;;;;;;83.47;34.73;;;;;;;-2.67;95.45;99870.23;1791064;79;21638;-70
2021/01/22 02:55:34;;;;;;;90.57;34.53;;;;;;;-2.67;95.53;99881.83;1790695;79;21202;-70
2021/01/22 02:58:16;;;;;;;64.82;26.80;;;;;;;-2.68;95.64;99877.11;1790933;79;25713;-70
2021/01/22 03:00:55;;;;;;;83.73;34.60;;;;;;;-2.68;95.71;99884.84;1785581;79;21235;-72
2021/01/22 03:03:37;;;;;;;86.00;34.70;;;;;;;-2.64;95.72;99878.02;1779501;80;21175;-70
2021/01/22 03:06:06;;;;;;;81.40;29.73;;;;;;;-2.62;95.75;99878.91;1780933;80;21400;-69
2021/01/22 03:08:34;;;;;;;78.03;33.67;;;;;;;-2.61;95.70;99875.05;1757237;80;21185;-71
2021/01/22 03:11:05;;;;;;;78.57;34.13;;;;;;;-2.61;95.71;99888.36;1757485;80;22773;-70
2021/01/22 03:13:33;;;;;;;86.60;34.70;;;;;;;-2.62;95.72;99877.19;1756741;80;21208;-69
2021/01/22 03:16:01;;;;;;;79.30;31.60;;;;;;;-2.61;95.71;99871.17;1781130;80;21165;-70
2021/01/22 03:18:30;;;;;;;81.17;34.53;;;;;;;-2.60;95.73;99865.59;1757279;80;21663;-71
2021/01/22 03:20:58;;;;;;;74.83;30.60;;;;;;;-2.58;95.69;99862.61;1780820;80;21189;-70
2021/01/22 03:23:27;;;;;;;77.70;32.93;;;;;;;-2.58;95.73;99863.89;1753505;80;21375;-69
2021/01/22 03:25:54;;;;;;;84.05;34.63;;;;;;;-2.58;95.78;99865.19;1751764;81;21210;-70
2021/01/22 03:28:22;;;;;;;79.93;32.33;;;;;;;-2.57;95.80;99860.48;1775864;80;21213;-70
2021/01/22 03:30:50;;;;;;;88.27;35.52;;;;;;;-2.58;95.78;99858.34;1783031;80;21193;-71
2021/01/22 03:33:18;;;;;;;89.27;36.03;;;;;;;-2.58;95.79;99847.14;1783085;80;21185;-71
2021/01/22 03:35:46;;;;;;;80.37;35.10;;;;;;;-2.58;95.81;99839.00;1783042;80;21226;-69
2021/01/22 03:38:14;;;;;;;69.77;26.73;;;;;;;-2.58;95.87;99840.30;1783042;80;21125;-71
2021/01/22 03:40:43;;;;;;;85.67;34.37;;;;;;;-2.60;95.99;99834.65;1783296;80;21712;-71
2021/01/22 03:43:12;;;;;;;77.83;30.73;;;;;;;-2.59;96.04;99844.13;1783187;80;21187;-72
2021/01/22 03:45:40;;;;;;;92.13;37.23;;;;;;;-2.59;96.11;99842.84;1783089;80;21146;-72
2021/01/22 03:48:09;;;;;;;87.72;35.15;;;;;;;-2.59;96.24;99844.13;1783262;80;21632;-71
2021/01/22 03:50:37;;;;;;;88.53;36.27;;;;;;;-2.59;96.29;99844.98;1783162;80;21200;-72
2021/01/22 03:53:06;;;;;;;73.90;31.47;;;;;;;-2.60;96.35;99843.67;1742024;80;21177;-72
2021/01/22 03:55:35;;;;;;;77.25;28.55;;;;;;;-2.59;96.47;99841.55;1734339;82;21193;-71
2021/01/22 03:58:05;;;;;;;80.80;30.47;;;;;;;-2.58;96.51;99847.14;1736520;82;21265;-72
2021/01/22 04:00:33;;;;;;;84.42;35.63;;;;;;;-2.59;96.63;99855.73;1736290;82;21360;-72
2021/01/22 04:04:49;;;;;;;76.73;29.80;;;;;;;-2.52;96.70;99844.64;1800743;78;23359;-72
2021/01/22 04:07:17;;;;;;;79.07;32.03;;;;;;;-2.58;96.79;99848.42;1776147;80;21136;-72
2021/01/22 04:09:45;;;;;;;52.88;20.45;;;;;;;-2.58;96.85;99842.88;1767271;80;21459;-70
2021/01/22 04:12:12;;;;;;;70.78;29.60;;;;;;;-2.57;96.88;99839.86;1699909;84;21235;-71
2021/01/22 04:14:40;;;;;;;75.40;31.48;;;;;;;-2.58;96.94;99836.83;1721994;83;21694;-70
2021/01/22 04:17:08;;;;;;;78.90;34.37;;;;;;;-2.55;96.92;99836.88;1699682;84;21213;-71
2021/01/22 04:19:37;;;;;;;78.83;32.47;;;;;;;-2.58;97.05;99841.98;1722182;83;21168;-71
2021/01/22 04:22:05;;;;;;;81.73;32.17;;;;;;;-2.56;97.07;99843.72;1700106;84;22374;-72
2021/01/22 04:24:35;;;;;;;75.33;31.57;;;;;;;-2.55;97.08;99840.75;1705700;83;21206;-73
2021/01/22 04:27:05;;;;;;;64.07;23.45;;;;;;;-2.55;97.11;99833.87;1694569;84;21198;-72
2021/01/22 04:29:32;;;;;;;75.65;31.90;;;;;;;-2.54;97.11;99838.59;1694675;84;22175;-72
2021/01/22 04:32:00;;;;;;;82.42;33.45;;;;;;;-2.53;97.12;99830.03;1694108;84;21217;-72
2021/01/22 04:34:28;;;;;;;76.40;31.20;;;;;;;-2.55;97.19;99840.75;1694476;84;21569;-70
2021/01/22 04:36:56;;;;;;;83.23;34.10;;;;;;;-2.53;97.19;99842.92;1694536;84;21196;-72
2021/01/22 04:39:24;;;;;;;77.50;31.20;;;;;;;-2.50;97.18;99842.09;1694475;84;21672;-72
2021/01/22 04:41:52;;;;;;;86.63;36.93;;;;;;;-2.50;97.21;99840.37;1691994;84;21708;-71
2021/01/22 04:44:22;;;;;;;75.80;31.87;;;;;;;-2.51;97.23;99825.73;1694827;84;21821;-73
2021/01/22 04:46:49;;;;;;;85.07;35.00;;;;;;;-2.50;97.24;99842.95;1699770;81;21226;-72
2021/01/22 04:49:17;;;;;;;76.30;30.05;;;;;;;-2.48;97.24;99840.39;1718534;83;21204;-71
2021/01/22 04:51:45;;;;;;;81.10;30.72;;;;;;;-2.46;97.21;99830.53;1718883;83;21662;-73
2021/01/22 04:54:28;;;;;;;76.15;30.25;;;;;;;-2.47;97.23;99835.23;1718623;83;21191;-74
2021/01/22 04:56:57;;;;;;;76.57;31.27;;;;;;;-2.47;97.19;99830.51;1718608;83;21187;-74
2021/01/22 04:59:47;;;;;;;84.70;34.08;;;;;;;-2.46;97.20;99824.09;1718707;83;21534;-73
2021/01/22 05:02:17;;;;;;;81.78;33.83;;;;;;;-2.44;97.19;99831.42;1718789;83;21754;-73
2021/01/22 05:04:45;;;;;;;90.42;35.10;;;;;;;-2.44;97.19;99824.97;1703451;83;21237;-74
2021/01/22 05:07:13;;;;;;;83.30;35.15;;;;;;;-2.43;97.17;99825.83;1737218;81;21223;-74
2021/01/22 05:09:41;;;;;;;79.75;31.82;;;;;;;-2.43;97.21;99826.69;1738483;82;21193;-72
2021/01/22 05:12:10;;;;;;;79.58;34.27;;;;;;;-2.44;97.26;99832.71;1738545;82;21208;-72
2021/01/22 05:14:39;;;;;;;78.80;33.02;;;;;;;-2.44;97.33;99839.55;1738336;82;22165;-72
2021/01/22 05:17:11;;;;;;;84.55;31.27;;;;;;;-2.44;97.32;99836.58;1738109;82;21149;-71
2021/01/22 05:19:42;;;;;;;78.40;33.28;;;;;;;-2.41;97.31;99837.03;1737885;82;21168;-71
2021/01/22 05:22:15;;;;;;;73.07;29.32;;;;;;;-2.37;97.27;99825.87;1737969;81;21137;-71
2021/01/22 05:24:43;;;;;;;56.42;24.02;;;;;;;-2.35;97.23;99828.94;1736253;82;21374;-72
2021/01/22 05:27:13;;;;;;;83.33;36.13;;;;;;;-2.34;97.19;99821.62;1735444;82;21213;-77
2021/01/22 05:29:43;;;;;;;76.22;31.07;;;;;;;-2.33;97.21;99820.77;1735690;82;21260;-76
2021/01/22 05:32:26;;;;;;;82.35;33.98;;;;;;;-2.33;97.17;99837.53;1735726;82;21458;-76
2021/01/22 05:34:55;;;;;;;81.37;35.60;;;;;;;-2.32;97.23;99834.55;1735502;82;21193;-75
2021/01/22 05:37:24;;;;;;;88.97;38.60;;;;;;;-2.32;97.22;99847.02;1735481;82;21864;-76
2021/01/22 05:40:11;;;;;;;82.53;32.55;;;;;;;-2.27;97.23;99839.75;1735595;82;21636;-75
2021/01/22 05:42:55;;;;;;;80.55;33.85;;;;;;;-2.27;97.22;99837.17;1735369;82;21232;-76
2021/01/22 05:45:44;;;;;;;88.75;37.05;;;;;;;-2.24;97.21;99838.48;1737174;80;21721;-75
2021/01/22 05:48:21;;;;;;;89.30;36.60;;;;;;;-2.22;97.18;99841.52;1736775;81;21148;-76
2021/01/22 05:50:58;;;;;;;79.62;32.95;;;;;;;-2.19;97.08;99840.68;1737904;82;21816;-75
2021/01/22 05:53:27;;;;;;;79.20;34.63;;;;;;;-2.16;97.02;99839.44;1737920;81;21168;-76
2021/01/22 05:56:18;;;;;;;80.10;31.75;;;;;;;-2.12;96.96;99832.14;1743254;82;21697;-76
2021/01/22 05:58:48;;;;;;;80.62;32.67;;;;;;;-2.10;96.87;99830.45;1743611;82;21136;-75
2021/01/22 06:01:21;;;;;;;70.90;29.72;;;;;;;-2.09;96.84;99832.20;1743790;82;21195;-76
2021/01/22 06:03:51;;;;;;;73.10;30.02;;;;;;;-2.08;96.78;99828.75;1738452;80;24783;-78
2021/01/22 06:06:20;;;;;;;82.63;34.93;;;;;;;-2.05;96.71;99836.51;1714749;83;21252;-75
2021/01/22 06:08:55;;;;;;;82.53;35.00;;;;;;;-2.04;96.60;99834.38;1722491;83;21816;-75
2021/01/22 06:11:31;;;;;;;65.78;24.20;;;;;;;-2.02;96.54;99832.69;1690651;83;21313;-75
2021/01/22 06:14:06;;;;;;;75.17;32.35;;;;;;;-2.01;96.52;99842.14;1677156;83;21173;-74
2021/01/22 06:16:35;;;;;;;83.80;34.98;;;;;;;-1.99;96.47;99836.58;1677997;81;21432;-69
2021/01/22 06:19:09;;;;;;;76.47;33.00;;;;;;;-1.98;96.40;99843.48;1628898;86;21177;-69
2021/01/22 06:21:59;;;;;;;92.08;38.53;;;;;;;-1.96;96.34;99835.30;1649486;85;21640;-70
2021/01/22 06:24:27;;;;;;;66.30;28.25;;;;;;;-1.92;96.29;99835.77;1654051;85;21723;-69
2021/01/22 06:26:56;;;;;;;75.97;34.90;;;;;;;-1.84;96.22;99831.09;1644660;85;21173;-70
2021/01/22 06:29:24;;;;;;;78.33;29.40;;;;;;;-1.80;96.10;99834.16;1627328;85;21374;-71
2021/01/22 06:31:52;;;;;;;80.57;31.62;;;;;;;-1.77;95.87;99836.75;1627715;86;21197;-69
2021/01/22 06:34:23;;;;;;;81.20;32.73;;;;;;;-1.77;95.73;99831.59;1646542;85;22324;-70
2021/01/22 06:36:51;;;;;;;84.00;34.35;;;;;;;-1.71;95.70;99831.64;1633541;86;21627;-70
2021/01/22 06:39:19;;;;;;;85.30;36.40;;;;;;;-1.72;95.49;99828.20;1649395;86;21251;-69
2021/01/22 06:41:47;;;;;;;82.90;33.28;;;;;;;-1.71;95.30;99814.42;1633673;86;21412;-70
2021/01/22 06:44:15;;;;;;;71.77;26.87;;;;;;;-1.68;95.19;99816.16;1644510;85;21207;-70
2021/01/22 06:46:43;;;;;;;80.80;34.13;;;;;;;-1.66;95.05;99827.38;1630047;86;21246;-69
2021/01/22 06:49:12;;;;;;;84.75;35.78;;;;;;;-1.64;95.03;99819.65;1577424;90;21673;-70
2021/01/22 06:51:39;;;;;;;87.17;33.48;;;;;;;-1.63;94.90;99827.42;1580327;88;21233;-71
2021/01/22 06:57:01;;;;;;;88.80;34.90;;;;;;;-1.61;94.79;99835.16;1827740;76;22721;-71
2021/01/22 07:02:40;;;;;;;64.63;23.40;;;;;;;-1.59;94.74;99829.14;1835967;75;22734;-72
2021/01/22 07:05:35;;;;;;;76.37;29.67;;;;;;;-1.66;94.75;99840.72;1804059;78;21597;-72
2021/01/22 07:08:05;;;;;;;92.22;36.05;;;;;;;-1.69;94.92;99828.65;1821374;77;21804;-73
2021/01/22 07:11:00;;;;;;;84.75;33.88;;;;;;;-1.67;94.95;99824.37;1790089;78;21531;-72
2021/01/22 07:13:37;;;;;;;91.12;38.00;;;;;;;-1.64;94.93;99828.25;1776434;80;21180;-72
2021/01/22 07:16:10;;;;;;;75.03;29.55;;;;;;;-1.60;94.74;99823.55;1775995;80;21167;-72
2021/01/22 07:18:52;;;;;;;84.52;36.73;;;;;;;-1.57;94.69;99827.44;1801166;79;21199;-74
2021/01/22 07:21:31;;;;;;;82.50;33.75;;;;;;;-1.50;94.61;99829.21;1805118;79;21336;-73
2021/01/22 07:24:02;;;;;;;95.30;39.53;;;;;;;-1.48;94.34;99817.17;1751171;80;21212;-73
2021/01/22 07:26:34;;;;;;;96.65;36.95;;;;;;;-1.49;94.17;99806.86;1703523;82;25766;-73
2021/01/22 07:29:25;;;;;;;77.17;33.15;;;;;;;-1.51;94.20;99811.14;1751762;81;21182;-73
2021/01/22 07:34:44;;;;;;;93.50;38.27;;;;;;;-1.40;94.29;99820.23;1834284;76;23288;-72
2021/01/22 07:37:23;;;;;;;85.10;36.63;;;;;;;-1.40;94.18;99816.36;1704828;82;21190;-71
2021/01/22 07:39:53;;;;;;;91.60;36.58;;;;;;;-1.27;94.03;99818.17;1701807;82;21393;-73
2021/01/22 07:42:23;;;;;;;84.32;35.80;;;;;;;-1.18;93.72;99819.52;1734627;80;21593;-73
2021/01/22 07:44:52;;;;;;;83.22;30.32;;;;;;;-1.16;93.08;99823.41;1730534;77;21284;-66
2021/01/22 07:47:31;;;;;;;93.62;39.73;;;;;;;-1.07;92.76;99813.98;1750085;80;21178;-68
2021/01/22 07:50:10;;;;;;;88.85;34.88;;;;;;;-0.98;92.50;99817.04;1748227;80;21174;-67
2021/01/22 07:52:48;;;;;;;85.45;41.35;;;;;;;-0.82;91.90;99814.09;1787949;78;27901;-68
2021/01/22 07:55:21;;;;;;;77.72;35.70;;;;;;;-0.84;91.34;99814.52;1709159;82;21174;-67
2021/01/22 07:58:03;;;;;;;78.52;31.70;;;;;;;-0.86;91.09;99816.23;1683888;85;21392;-67
2021/01/22 08:00:40;;;;;;;85.65;38.75;;;;;;;-0.86;91.07;99820.10;1708998;82;21518;-66
2021/01/22 08:03:09;;;;;;;84.20;38.25;;;;;;;-0.80;91.15;99820.14;1684153;83;21160;-67
2021/01/22 08:05:38;;;;;;;75.40;33.08;;;;;;;-0.74;90.91;99818.84;1701046;83;21647;-68
2021/01/22 08:08:27;;;;;;;91.72;39.53;;;;;;;-0.70;90.80;99824.47;1696992;82;21176;-67
2021/01/22 08:10:55;;;;;;;87.12;39.03;;;;;;;-0.66;90.67;99821.05;1697030;84;21425;-67
2021/01/22 08:13:24;;;;;;;83.37;33.02;;;;;;;-0.61;90.55;99810.72;1722598;82;21092;-67
2021/01/22 08:16:04;;;;;;;82.45;32.88;;;;;;;-0.54;90.19;99822.81;1697456;83;21281;-68
2021/01/22 08:18:32;;;;;;;97.35;42.05;;;;;;;-0.50;89.98;99831.45;1717606;80;21186;-73
2021/01/22 08:21:00;;;;;;;83.03;35.43;;;;;;;-0.48;89.82;99817.66;1725525;82;21194;-74
2021/01/22 08:23:32;;;;;;;85.85;38.63;;;;;;;-0.46;89.57;99816.35;1725643;82;21906;-73
2021/01/22 08:26:00;;;;;;;94.15;41.05;;;;;;;-0.42;89.56;99819.39;1712834;82;21223;-73
2021/01/22 08:28:30;;;;;;;78.05;33.88;;;;;;;-0.38;89.31;99810.78;1711982;82;21816;-73
2021/01/22 08:30:58;;;;;;;88.15;40.03;;;;;;;-0.35;89.10;99810.77;1713991;82;21698;-72
2021/01/22 08:36:07;;;;;;;84.63;36.23;;;;;;;-0.28;88.91;99808.63;1817297;76;23427;-72
2021/01/22 08:38:37;;;;;;;84.03;38.83;;;;;;;-0.28;88.59;99816.39;1783112;76;21642;-66
2021/01/22 08:41:05;;;;;;;90.22;40.92;;;;;;;-0.24;88.52;99807.78;1744003;79;21443;-65
2021/01/22 08:43:50;;;;;;;90.20;40.95;;;;;;;-0.11;88.12;99807.38;1748993;79;21220;-67
2021/01/22 08:46:24;;;;;;;84.45;36.15;;;;;;;-0.05;87.79;99812.98;1739427;80;21150;-65
2021/01/22 08:48:53;;;;;;;83.50;37.98;;;;;;;-0.06;87.34;99809.97;1740267;80;21209;-66
2021/01/22 08:51:28;;;;;;;83.12;37.13;;;;;;;-0.01;87.24;99800.04;1742356;81;21181;-66
2021/01/22 08:53:57;;;;;;;81.95;35.85;;;;;;;0.15;87.04;99803.50;1741328;81;21344;-67
2021/01/22 08:56:27;;;;;;;79.53;35.75;;;;;;;0.20;86.56;99799.17;1733715;81;21710;-65
2021/01/22 08:59:10;;;;;;;74.15;35.73;;;;;;;0.22;86.12;99799.62;1740260;80;21123;-66
2021/01/22 09:04:35;;;;;;;73.87;39.00;;;;;;;0.44;85.26;99791.39;1793230;77;27908;-66
2021/01/22 09:07:05;;;;;;;64.65;33.25;;;;;;;0.53;84.96;99790.97;1763793;79;21198;-64
2021/01/22 09:09:39;;;;;;;;;;;;;;;0.66;84.07;99784.01;1773383;80;21798;-66
2021/01/22 09:12:17;;;;;;;74.37;35.90;;;;;;;0.67;83.93;99783.57;1751640;80;20237;-66
2021/01/22 09:14:53;;;;;;;75.80;35.68;;;;;;;0.59;83.94;99780.56;1723413;82;21629;-65
2021/01/22 09:20:27;;;;;;;80.07;36.97;;;;;;;0.69;83.81;99775.36;1859411;76;22659;-66
2021/01/22 09:22:58;;;;;;;76.95;34.13;;;;;;;0.67;83.78;99770.61;1826468;78;21199;-65
2021/01/22 09:25:26;;;;;;;;;;;;;;;0.57;83.75;99777.11;1827511;78;21342;-65
2021/01/22 09:27:54;;;;;;;78.65;34.58;;;;;;;0.58;83.77;99780.59;1827815;77;21040;-65
2021/01/22 09:30:25;;;;;;;71.92;33.65;;;;;;;0.51;83.94;99768.52;1760714;76;21223;-74
2021/01/22 09:32:59;;;;;;;82.78;37.75;;;;;;;0.52;84.12;99760.72;1728348;81;21184;-73
2021/01/22 09:35:29;;;;;;;74.45;37.00;;;;;;;0.55;84.07;99762.03;1734734;81;21156;-72
2021/01/22 09:37:57;;;;;;;78.45;37.10;;;;;;;0.56;84.09;99765.48;1745905;81;21371;-72
2021/01/22 09:40:25;;;;;;;83.35;39.73;;;;;;;0.62;84.06;99765.03;1742962;82;21175;-71
2021/01/22 09:42:55;;;;;;;70.28;30.32;;;;;;;0.62;83.71;99752.48;1746624;80;21138;-71
2021/01/22 09:45:23;;;;;;;80.25;37.13;;;;;;;0.55;83.62;99750.37;1738437;81;21655;-76
2021/01/22 09:47:51;;;;;;;72.47;30.48;;;;;;;0.52;83.72;99745.61;1746711;82;21131;-73
2021/01/22 09:50:20;;;;;;;69.60;33.45;;;;;;;0.50;83.90;99754.67;1746862;80;21190;-73
2021/01/22 09:52:48;;;;;;;77.90;38.58;;;;;;;0.50;83.83;99765.03;1746628;82;21199;-68
2021/01/22 09:55:18;;;;;;;74.03;36.65;;;;;;;0.50;83.86;99752.08;1746919;82;21606;-69
2021/01/22 09:57:46;;;;;;;73.40;35.60;;;;;;;0.62;83.76;99733.94;1746932;81;21158;-67
2021/01/22 10:00:15;;;;;;;75.85;34.05;;;;;;;0.79;83.46;99743.38;1746530;82;21170;-72
2021/01/22 10:02:44;;;;;;;74.15;35.92;;;;;;;0.83;82.57;99734.73;1746353;81;21813;-73
2021/01/22 10:05:12;;;;;;;65.52;34.53;;;;;;;0.87;82.36;99735.56;1745977;82;21354;-71
2021/01/22 10:07:40;;;;;;;69.40;35.48;;;;;;;0.98;82.00;99731.20;1746555;81;21194;-72
2021/01/22 10:10:11;;;;;;;67.40;32.48;;;;;;;1.17;81.61;99730.67;1746592;82;21163;-72
2021/01/22 10:12:39;;;;;;;72.47;34.85;;;;;;;1.41;81.04;99733.13;1742665;82;21191;-72
2021/01/22 10:15:09;;;;;;;63.70;31.42;;;;;;;1.57;80.20;99730.00;1746763;82;21166;-71
2021/01/22 10:17:37;;;;;;;63.87;33.78;;;;;;;1.62;79.19;99728.67;1759835;80;21202;-66
2021/01/22 10:20:08;;;;;;;72.70;36.88;;;;;;;1.69;79.18;99723.86;1781628;79;21191;-66
2021/01/22 10:22:36;;;;;;;73.93;34.50;;;;;;;1.74;79.02;99727.72;1752556;81;21190;-65
2021/01/22 10:25:06;;;;;;;65.87;30.70;;;;;;;1.72;78.55;99717.34;1776335;80;21193;-66
2021/01/22 10:27:35;;;;;;;68.50;36.53;;;;;;;1.64;78.42;99716.11;1768621;80;21320;-67
2021/01/22 10:30:05;;;;;;;67.92;36.20;;;;;;;1.57;78.71;99716.17;1774117;80;21207;-65
2021/01/22 10:32:33;;;;;;;71.77;35.98;;;;;;;1.61;79.10;99715.25;1753104;81;21211;-66
2021/01/22 10:35:05;;;;;;;72.25;35.10;;;;;;;1.71;78.65;99716.92;1752179;80;21161;-65
2021/01/22 10:37:34;;;;;;;67.65;33.23;;;;;;;1.72;78.43;99713.44;1728480;80;22209;-66
2021/01/22 10:40:05;;;;;;;66.33;31.48;;;;;;;1.77;78.37;99698.71;1756723;78;21344;-72
2021/01/22 10:42:33;;;;;;;65.45;34.05;;;;;;;1.82;77.98;99691.73;1722004;83;21264;-73
2021/01/22 10:45:01;;;;;;;73.45;36.80;;;;;;;2.09;77.60;99687.16;1722698;82;21763;-71
2021/01/22 10:47:30;;;;;;;74.22;37.70;;;;;;;2.77;75.44;99686.44;1722405;81;21198;-75
2021/01/22 10:49:59;;;;;;;70.15;37.85;;;;;;;3.53;73.31;99682.75;1722794;81;21608;-71
2021/01/22 10:52:28;;;;;;;66.90;36.08;;;;;;;4.10;71.59;99671.39;1722655;81;21415;-72
2021/01/22 10:54:56;;;;;;;66.47;35.38;;;;;;;4.63;69.53;99666.05;1734632;81;21416;-74
2021/01/22 10:57:23;;;;;;;69.50;36.55;;;;;;;4.73;67.24;99671.48;1722627;83;21178;-73
2021/01/22 10:59:51;;;;;;;70.75;37.13;;;;;;;4.33;67.55;99667.52;1722652;83;21166;-73
2021/01/22 11:02:18;;;;;;;67.30;35.50;;;;;;;3.87;68.59;99656.17;1722810;83;21182;-74
2021/01/22 11:04:47;;;;;;;75.17;36.42;;;;;;;3.50;69.67;99665.03;1722518;81;21364;-73
2021/01/22 11:07:15;;;;;;;63.50;31.68;;;;;;;3.22;70.79;99661.97;1722865;83;21200;-72
2021/01/22 11:09:43;;;;;;;64.55;33.78;;;;;;;3.12;72.00;99661.24;1722624;83;21205;-72
2021/01/22 11:12:13;;;;;;;63.30;32.28;;;;;;;3.39;71.55;99646.97;1722742;83;21193;-71
2021/01/22 11:14:47;;;;;;;66.75;35.15;;;;;;;3.67;70.11;99646.08;1722952;83;21629;-71
2021/01/22 11:17:15;;;;;;;65.75;32.90;;;;;;;3.89;69.14;99636.16;1722986;81;21661;-71
2021/01/22 11:19:43;;;;;;;52.40;23.32;;;;;;;4.04;68.51;99632.86;1722618;83;21629;-71
2021/01/22 11:22:12;;;;;;;61.55;33.92;;;;;;;3.92;68.13;99621.77;1722690;83;21194;-73
2021/01/22 11:24:40;;;;;;;66.20;33.20;;;;;;;3.85;68.72;99629.28;1703427;83;21226;-72
2021/01/22 11:27:08;;;;;;;59.65;31.02;;;;;;;3.87;68.58;99617.09;1692369;84;21638;-73
2021/01/22 11:29:38;;;;;;;67.15;34.27;;;;;;;4.01;68.18;99622.50;1692361;84;21391;-71
2021/01/22 11:32:06;;;;;;;59.15;33.53;;;;;;;4.44;67.07;99615.14;1692673;83;21222;-73
2021/01/22 11:34:34;;;;;;;61.30;30.92;;;;;;;5.05;65.61;99617.75;1692395;84;21205;-72
2021/01/22 11:37:06;;;;;;;62.27;33.92;;;;;;;5.68;63.41;99615.81;1726156;81;21153;-74
2021/01/22 11:39:35;;;;;;;60.05;31.80;;;;;;;6.04;62.32;99607.92;1752740;80;21229;-73
2021/01/22 11:42:08;;;;;;;57.88;30.97;;;;;;;6.48;60.12;99611.06;1752024;81;21799;-73
2021/01/22 11:44:37;;;;;;;59.38;31.87;;;;;;;6.72;59.00;99606.89;1751835;81;21145;-73
2021/01/22 11:47:05;;;;;;;55.45;30.90;;;;;;;6.84;58.79;99605.66;1722186;81;21134;-72
2021/01/22 11:49:33;;;;;;;52.83;30.60;;;;;;;7.04;58.74;99601.56;1721170;81;22197;-72
2021/01/22 11:52:01;;;;;;;49.75;28.25;;;;;;;7.37;57.89;99597.50;1720527;83;21201;-73
2021/01/22 11:54:31;;;;;;;54.48;28.80;;;;;;;7.46;56.20;99595.89;1721429;83;21797;-72